Tiempo atmosférico en la estación meteorológica de Almería Aeropuerto, Almería (21 m.)



Fecha
DESCASC
Temp. máxima en grados centígrados (hora)
DESCASC
Temp. mínima en grados centígrados (hora)
DESCASC
Temp. media en grados centígrados
DESCASC
Racha de viento máxima en m/sg (hora)
DESCASC
Velocidad máxima media en intervalos de 10 minutos(hora)
DESCASC
Precipitaciones diarias en mm
DESCASC
Precipitaciones de 00:00 a 06:00 en mm
DESCASC
Precipitaciones de 06:00 a 12:00 en mm
DESCASC
Precipitaciones de 12:00 a 18:00 en mm
DESCASC
Precipitaciones de 18:00 a 24:00 en mm
DESCASC
22-11-2020 20.3 (12:30) 11.9 (06:30) 16.1 9.17 (06:10) 6.67 (06:10) 0 0 0 0 0
21-11-2020 21.6 (12:10) 13.7 (07:50) 17.7 11.39 (16:30) 8.33 (16:30) 0 0 0 0 0
20-11-2020 21.2 (13:50) 13.4 (07:20) 17.3 8.33 (07:20) 5.83 (07:10) 0 0 0 0 0
19-11-2020 23.7 (14:40) 13.5 (00:00) 18.6 12.5 (16:10) 9.17 (16:10) 0 0 0 0 0
18-11-2020 21.9 (16:00) 11.6 (00:00) 16.8 -- (--) -- (--) -- -- 0 0 0
17-11-2020 25.3 (15:20) 15.2 (00:00) 20.2 10.83 (08:30) 8.06 (08:30) 0 0 0 0 0
16-11-2020 21.7 (13:50) 13.8 (00:00) 17.8 4.72 (21:00) 3.89 (22:10) 0 0 0 0 0
15-11-2020 21.4 (13:30) 14 (00:00) 17.7 5.83 (14:10) 4.17 (14:40) 0 0 0 0 0
14-11-2020 21.6 (14:20) 17.1 (00:00) 19.4 6.11 (17:50) 4.44 (17:50) 0 0 0 0 0
13-11-2020 22.9 (12:40) 15.1 (00:00) 19 -- (--) -- (--) 0 0 0 0 0
12-11-2020 24 (13:40) 14.1 (00:00) 19.1 11.67 (15:30) 8.61 (15:30) 0 0 0 0 0
11-11-2020 23.8 (12:20) 13.9 (00:00) 18.8 12.5 (13:50) 8.33 (15:40) 0 0 0 0 0
10-11-2020 24.4 (15:10) 12.9 (00:00) 18.6 10.83 (14:50) 6.67 (08:40) 0 0 0 0 0
09-11-2020 20.7 (14:40) 13.1 (00:00) 16.9 6.11 (04:40) 4.17 (04:40) 0 0 0 0 0
08-11-2020 23.7 (11:30) 13 (00:00) 18.4 10.83 (05:30) 7.22 (05:40) 0 0 0 0 0
07-11-2020 23.5 (00:00) 13.7 (00:00) 18.6 18.61 (03:20) 12.22 (03:20) 3.1 3.1 0 0 0
06-11-2020 28.6 (12:00) 19.9 (00:00) 24.3 13.89 (01:00) 9.72 (13:20) 0 0 0 0 0
05-11-2020 24.2 (15:40) 18.6 (00:00) 21.4 21.67 (06:10) 12.78 (06:10) 1.4 0.6 0.1 0.7 0
04-11-2020 24.9 (14:00) 14.9 (00:00) 19.9 13.89 (21:00) 9.72 (21:20) 0 0 0 0 0
03-11-2020 19.1 (13:50) 11 (00:00) 15.1 6.67 (23:00) 3.89 (23:00) 0 0 0 0 0
02-11-2020 19.2 (12:30) 11.4 (00:00) 15.3 -- (--) -- (--) 0 0 0 0 0
01-11-2020 20.7 (13:50) 12.7 (00:00) 16.7 5 (14:30) 3.89 (14:40) 0 0 0 0 0
31-10-2020 22.3 (09:50) 14.3 (00:00) 18.3 9.72 (06:30) 6.67 (08:20) 0 0 0 0 0
30-10-2020 28.6 (12:10) 14.1 (00:00) 21.4 9.17 (12:40) 6.67 (13:00) 0 0 0 0 0
29-10-2020 24.7 (17:10) 12.2 (00:00) 18.5 7.22 (19:50) 5 (13:50) 0 0 0 0 0
28-10-2020 20.3 (11:50) 10.2 (00:00) 15.2 4.72 (02:50) 3.33 (03:00) -- 0 0 -- 0
27-10-2020 20.4 (13:30) 12.4 (00:00) 16.4 10.83 (06:30) 7.22 (07:40) 0 0 0 0 0

Gráficas

Temp. máximas Temp. mínimas Temp. medias Precipitaciones Rachas de viento máximas Velocidades máximas media en intervalos de 10 minutos

Datos horarios

Fecha y hora oficial Temperatura (ºC) Velocidad del viento (km/h) Dirección del viento Racha (km/h) Dirección de racha Precipitación (mm) Presión (hPa) Tendencia (hPa) Humedad (%)
2020-11-25 23:00:00 14.4 11 Norte 15 Norte 0 1010.9 -0.4 83
2020-11-25 22:00:00 15.2 9 Norte 22 Noroeste 0 1011.1 -0.3 81
2020-11-25 21:00:00 15.3 13 Norte 21 Norte 0 1011 -0.3 83
2020-11-25 20:00:00 15.5 12 Nordeste 15 Norte 0 1011.3 0.1 81
2020-11-25 19:00:00 16.5 6 Nordeste 11 Sudeste 0 1011.4 -0.2 80
2020-11-25 18:00:00 17.4 8 Sudeste 11 Sur 0 1011.3 -0.8 77
2020-11-25 17:00:00 18.9 7 Sur 13 Sur 0 1011.2 -1.9 71
2020-11-25 16:00:00 19.4 8 Sudeste 15 Sur 0 1011.6 -2.5 73
2020-11-25 15:00:00 19.5 12 Sur 17 Sur 0 1012.1 -3.2 72
2020-11-25 14:00:00 19.1 10 Sur 15 Sur 0 1013.1 -2.8 71
2020-11-25 13:00:00 19.1 10 Sur 13 Sur 0 1014.1 -1.7 69
2020-11-25 12:00:00 18.4 8 Sur 13 Sur 0 1015.3 -0.7 70
2020-11-25 11:00:00 15.6 7 Noroeste 15 Noroeste 0 1015.9 -- 69
2020-11-25 10:00:00 14 11 Noroeste 21 Noroeste 0 1015.8 -- 74
2020-11-25 09:00:00 13 13 Norte 24 Norte 0 1016 -- 76
2020-11-25 08:00:00 12.3 19 Norte 28 Norte 0 1015.8 -- 77
2020-11-25 07:00:00 12.6 19 Noroeste 28 Noroeste 0 1015.8 -- 77
2020-11-25 06:00:00 13.5 16 Noroeste 26 Noroeste 0 1015.8 -- 76
2020-11-25 05:00:00 12.4 17 Noroeste 24 Noroeste 0 1016.1 -- 80
2020-11-25 04:00:00 12.2 12 Norte 15 Norte 0 1016.3 -- 85
2020-11-25 03:00:00 12.3 11 Norte 15 Noroeste 0 1016.6 -- 84
2020-11-25 02:00:00 12.5 9 Norte 15 Norte 0 1017.2 -- 83
2020-11-25 01:00:00 13.8 6 Norte 13 Noroeste 0 1017.9 -- 82
2020-11-25 00:00:00 13.4 12 Norte -- -- 0 1018.2 -- 84
2020-11-24 23:00:00 12.1 9 Norte -- -- 0 1018.5 -- 88
2020-11-24 22:00:00 12.3 5 Noroeste 9 Oeste 0 1018.8 -- 87
2020-11-24 21:00:00 13.1 4 Norte 8 Norte 0 1018.7 -- 83
2020-11-24 20:00:00 14.2 5 Norte 9 Oeste 0 1018.8 -- 81
2020-11-24 19:00:00 16 8 Sudoeste 15 Sudoeste 0 1018.6 -- 78
2020-11-24 18:00:00 16.7 11 Sur 15 Sudoeste 0 1018.7 -- 75
2020-11-24 17:00:00 18.1 11 Sur 15 Sur 0 1018.7 -- 68
2020-11-24 16:00:00 18.7 11 Sur 17 Sur 0 1018.9 -- 66
2020-11-24 15:00:00 19 10 Sur 15 Sur 0 1019.6 -- 64
2020-11-24 14:00:00 19.3 10 Sur 17 Sur 0 1020.4 -- 61
2020-11-24 13:00:00 18.9 9 Sudoeste 15 Sudoeste 0 1021.3 -- 61
2020-11-24 12:00:00 19 6 Sudoeste 17 Noroeste 0 1022.4 -- 57
2020-11-24 11:00:00 17.2 14 Noroeste 30 Noroeste 0 1023 -- 55
2020-11-24 10:00:00 13.2 22 Noroeste 35 Noroeste 0 1023 -- 64
2020-11-24 09:00:00 10.9 24 Noroeste 33 Noroeste 0 1023.1 -- 74
2020-11-24 08:00:00 9.7 25 Noroeste 35 Noroeste 0 1022.9 -- 78
2020-11-24 07:00:00 9.7 27 Noroeste 33 Noroeste 0 1022.7 -- 78
2020-11-24 06:00:00 10.1 24 Noroeste 33 Norte 0 1022.7 -- 78
2020-11-24 05:00:00 10.3 24 Noroeste 32 Noroeste 0 1022.9 -- 78
2020-11-24 04:00:00 11.5 19 Norte 30 Noroeste 0 1023.3 -- 76
2020-11-24 03:00:00 10.9 16 Norte 28 Noroeste 0 1023.8 -- 77
2020-11-24 02:00:00 11.3 18 Norte 26 Norte 0 1024 -- 77
2020-11-24 01:00:00 11.8 18 Norte 26 Noroeste 0 1024.5 -- 76
2020-11-24 00:00:00 12.1 17 Noroeste 24 Norte 0 1024.7 -- 77
2020-11-23 23:00:00 11.8 13 Norte 18 Norte 0 1025 -- 80
2020-11-23 22:00:00 12.6 12 Norte 28 Norte 0 1025 -- 75
2020-11-23 21:00:00 13.3 11 Norte 17 Norte 0 1025 -- 73
2020-11-23 20:00:00 13.7 10 Nordeste -- -- 0 1024.9 -- 71
2020-11-23 19:00:00 15.4 9 Sudeste 15 Sudeste 0 1024.6 -- 68
2020-11-23 18:00:00 16.5 12 Sur 17 Sur 0 1024.4 -- 64
2020-11-23 17:00:00 18 12 Sur 18 Sur 0 1024.3 -- 61
2020-11-23 16:00:00 18.9 13 Sur 21 Sur 0 1024.3 -- 57
2020-11-23 15:00:00 19 15 Sur 21 Sur 0 1024.6 -- 56
2020-11-23 14:00:00 19.3 15 Sur 21 Sur 0 1025.3 -- 54
2020-11-23 13:00:00 19.3 13 Sur 17 Sur 0 1025.8 -- 53
2020-11-23 12:00:00 19.1 9 Sudeste 21 Oeste 0 1026.5 -- 51
2020-11-23 11:00:00 16.9 11 Noroeste 24 Noroeste 0 1026.9 -- 57
2020-11-23 10:00:00 13.8 20 Noroeste 33 Norte 0 1026.7 -- 65
2020-11-23 09:00:00 11.2 24 Noroeste 35 Norte 0 1026.2 -- 73
2020-11-23 08:00:00 10.6 26 Noroeste 33 Noroeste 0 1025.6 -- 75
2020-11-23 07:00:00 11 24 Noroeste 35 Noroeste 0 1025.2 -- 75
2020-11-23 06:00:00 10.8 24 Noroeste 35 Noroeste 0 1025.1 -- 76
2020-11-23 05:00:00 10.3 24 Noroeste 32 Norte 0 1025.2 -- 78
2020-11-23 04:00:00 11.7 16 Noroeste 30 Noroeste 0 1025.3 -- 76
2020-11-23 03:00:00 11.4 21 Norte 32 Norte 0 1025.2 -- 75
2020-11-23 02:00:00 11.7 22 Noroeste 32 Norte 0 1025.2 -- 74
2020-11-23 01:00:00 13.5 17 Noroeste 24 Norte 0 1025.5 -- 70
2020-11-23 00:00:00 13.4 11 Norte 17 Norte 0 1025.5 -- 74
2020-11-22 23:00:00 11.9 13 Norte 17 Norte 0 1025.6 -- 78
2020-11-22 22:00:00 13 12 Norte 17 Norte 0 1025.5 -- 71
2020-11-22 21:00:00 13.6 12 Norte 15 Nordeste 0 1025.3 -- 69
2020-11-22 20:00:00 14.1 11 Nordeste 13 Nordeste 0 1025 -- 68
2020-11-22 19:00:00 14.9 9 Nordeste 17 Sur 0 1024.7 -- 63
2020-11-22 18:00:00 16.9 12 Sur 21 Sur 0 1024.4 -- 61
2020-11-22 17:00:00 18.3 15 Sudeste 22 Sur 0 1024.4 -- 57
2020-11-22 16:00:00 19.3 16 Sur 24 Sur 0 1024.3 -- 56
2020-11-22 15:00:00 19.7 14 Sur 18 Sur 0 1024.4 -- 55
2020-11-22 14:00:00 19.7 14 Sur 17 Sur 0 1024.9 -- 56
2020-11-22 13:00:00 19.7 13 Sur 24 Este 0 1025.6 -- 50
2020-11-22 12:00:00 19.3 9 Norte 24 Noroeste 0 1026.1 -- 49
2020-11-22 11:00:00 17.7 17 Noroeste 28 Noroeste 0 1026.6 -- 48
2020-11-22 10:00:00 13.9 22 Noroeste 30 Noroeste 0 1026.5 -- 60
2020-11-22 09:00:00 12.3 22 Noroeste 33 Noroeste 0 1026.1 -- 65
2020-11-22 08:00:00 12.1 23 Noroeste 33 Norte 0 1025.8 -- 66
2020-11-22 07:00:00 12.1 24 Noroeste 33 Noroeste 0 1025.7 -- 66
2020-11-22 06:00:00 12.2 24 Noroeste 32 Norte 0 1025.5 -- 67
2020-11-22 05:00:00 12.4 22 Noroeste 32 Noroeste 0 1025.4 -- 69
2020-11-22 04:00:00 12.9 19 Noroeste 26 Noroeste 0 1025.5 -- 69
2020-11-22 03:00:00 13.1 17 Norte 22 Norte 0 1025.6 -- 71
2020-11-22 02:00:00 13.3 17 Noroeste 28 Noroeste 0 1025.8 -- 72
2020-11-22 01:00:00 14.2 18 Noroeste 28 Noroeste 0 1026.2 -- 70
2020-11-22 00:00:00 14.2 15 Norte 22 Norte 0 1026.4 -- 72
2020-11-21 23:00:00 13.8 14 Norte 21 Nordeste 0 1026.4 -- 72
2020-11-21 22:00:00 15.2 12 Nordeste 21 Nordeste 0 1026.3 -- 66
2020-11-21 21:00:00 15.3 14 Nordeste 28 Nordeste 0 1026.2 -- 70
2020-11-21 20:00:00 15.5 14 Nordeste 21 Este 0 1025.8 -- 73
2020-11-21 19:00:00 16.1 14 Este 24 Este 0 1025 -- 72
2020-11-21 18:00:00 17.5 19 Este 33 Este 0 1024.4 -- 65
2020-11-21 17:00:00 18.9 25 Este 41 Este 0 1024.1 -- 61
2020-11-21 16:00:00 20.4 24 Este 33 Este 0 1023.8 -- 59
2020-11-21 15:00:00 21 21 Este 32 Este 0 1023.8 -- 49
2020-11-21 14:00:00 21.1 23 Este 35 Este 0 1024.2 -- 50
2020-11-21 13:00:00 19.9 25 Este 35 Este 0 1024.8 -- 53
2020-11-21 12:00:00 20.9 24 Este 37 Este 0 1025.5 -- 51
2020-11-21 11:00:00 20.1 24 Este 33 Este 0 1025.6 -- 56
2020-11-21 10:00:00 17.2 9 Norte 17 Norte 0 1025.5 -- 64
2020-11-21 09:00:00 15.4 12 Norte 17 Norte 0 1024.8 -- 73
2020-11-21 08:00:00 13.8 9 Norte 17 Norte 0 1024.4 -- 78
2020-11-21 07:00:00 14.6 12 Norte 22 Este 0 1023.8 -- 78
2020-11-21 06:00:00 15.4 13 Nordeste 21 Nordeste 0 1023.4 -- 77
2020-11-21 05:00:00 16.5 15 Nordeste 30 Nordeste 0 1023.2 -- 75
2020-11-21 04:00:00 15.3 11 Nordeste 21 Nordeste 0 1023.5 -- 80
2020-11-21 03:00:00 15.3 3 Nordeste 21 Este 0 1023.1 -- 82
2020-11-21 02:00:00 16.3 15 Este 24 Este 0 1023.2 -- 81
2020-11-21 01:00:00 16.7 16 Este 26 Este 0 1023.6 -- 81
2020-11-21 00:00:00 17.7 18 Nordeste 28 Este 0 1023.8 -- 81
2020-11-20 23:00:00 18.1 16 Nordeste 24 Nordeste 0 1023.9 -- 78
2020-11-20 22:00:00 18.1 9 Norte 17 Nordeste 0 1023.6 -- 77
2020-11-20 21:00:00 17.9 9 Nordeste 13 Nordeste 0 1023.4 -- 77
2020-11-20 20:00:00 17.1 7 Norte 9 Norte 0 1023.5 -- 87
2020-11-20 19:00:00 17.7 3 Sudoeste 5 Sur 0 1023 -- 86
2020-11-20 18:00:00 18.5 3 Sur 11 Sudoeste 0 1022.8 -- 83
2020-11-20 17:00:00 19.1 9 Sur 13 Sudoeste 0 1022.7 -- 80
2020-11-20 16:00:00 19.9 11 Sur 17 Sur 0 1022.5 -- 78
2020-11-20 15:00:00 20.5 13 Sur 18 Sur 0 1022.9 -- 72
2020-11-20 14:00:00 21 13 Sur 17 Sur 0 1023.2 -- 67
2020-11-20 13:00:00 20.6 9 Sudoeste 13 Sudoeste 0 1023.8 -- 68
2020-11-20 12:00:00 20.5 8 Sur 11 Sur 0 1024.9 -- 64
2020-11-20 11:00:00 20.2 6 Sur 15 Norte 0 1025 -- 61
2020-11-20 10:00:00 17 9 Norte 18 Norte 0 1025 -- 68
2020-11-20 09:00:00 15 13 Norte -- -- -- 1024.9 -- 75
2020-11-20 08:00:00 14.6 15 Noroeste 30 Noroeste 0 1024.7 -- 78
2020-11-20 07:00:00 13.9 18 Noroeste 26 Norte 0 1024.7 -- 81
2020-11-20 06:00:00 14.5 14 Noroeste 22 Norte 0 1024.9 -- 80
2020-11-20 05:00:00 14.2 17 Norte 22 Norte 0 1025.1 -- 79
2020-11-20 04:00:00 14.7 10 Norte 18 Noroeste 0 1025.5 -- 80
2020-11-20 03:00:00 14 12 Norte 17 Noroeste 0 1025.6 -- 82
2020-11-20 02:00:00 14.5 14 Norte 18 Norte 0 1026.2 -- 80
2020-11-20 01:00:00 14.8 8 Norte 17 Norte 0 1026.8 -- 79
2020-11-20 00:00:00 15.1 12 Norte 17 Norte 0 1027.1 -- 78
2020-11-19 23:00:00 15.8 13 Norte 15 Norte 0 1027.3 -- 75
2020-11-19 22:00:00 16.2 12 Norte 15 Norte 0 1027 -- 70
2020-11-19 21:00:00 17.6 10 Nordeste 18 Nordeste 0 1026.9 -- 66
2020-11-19 20:00:00 17.6 11 Norte 22 Este 0 1026.6 -- 67
2020-11-19 19:00:00 18.4 16 Este 22 Este 0 1026.2 -- 64
2020-11-19 18:00:00 20.2 17 Este 37 Este 0 1025.7 -- 58
2020-11-19 17:00:00 21.9 26 Este 45 Este 0 1025.4 -- 52
2020-11-19 16:00:00 23.2 30 Este 42 Este 0 1025.2 -- 48
2020-11-19 15:00:00 23.2 28 Este 42 Este 0 1025.5 -- 49
2020-11-19 14:00:00 23.1 27 Este 41 Este 0 1026 -- 51
2020-11-19 13:00:00 22.7 24 Este 37 Este 0 1026.6 -- 54
2020-11-19 12:00:00 21.1 23 Este 35 Este 0 1027.2 -- 60
2020-11-19 11:00:00 20 4 Oeste 18 Noroeste 0 1027.5 -- 67
2020-11-19 10:00:00 17.5 15 Noroeste 24 Norte 0 1027.2 -- 76
2020-11-19 09:00:00 15.8 17 Norte 26 Norte 0 1026.6 -- 80
2020-11-19 08:00:00 14 12 Norte 17 Norte 0 1025.9 -- 88
2020-11-19 07:00:00 14.1 12 Norte 17 Norte 0 1025.4 -- 88
2020-11-19 06:00:00 13.8 8 Norte 13 Norte 0 1024.9 -- 89
2020-11-19 05:00:00 14.2 6 Norte 13 Norte 0 1024.7 -- 87
2020-11-19 04:00:00 14.6 6 Nordeste 21 Norte 0 1024.6 -- 85
2020-11-19 03:00:00 14.6 13 Norte 17 Norte 0 1024.6 -- 85
2020-11-19 02:00:00 14.5 9 Norte 15 Norte 0 1024.8 -- 87
2020-11-19 01:00:00 15.5 13 Norte 21 Noroeste 0 1025.1 -- 82
2020-11-19 00:00:00 15.6 11 Norte 21 Norte 0 1024.9 -- 83
2020-11-18 23:00:00 15.2 7 Norte 13 Norte 0 1025 -- 84
2020-11-18 22:00:00 15.8 11 Norte 15 Norte 0 1024.9 -- 84
2020-11-18 21:00:00 16 9 Norte 13 Norte 0 1024.7 -- 83
2020-11-18 20:00:00 16.7 7 Norte -- -- 0 1024.6 -- 83
2020-11-18 19:00:00 17.6 0 Calma 4 Oeste 0 1024.4 -- 83
2020-11-18 18:00:00 19.3 4 Sudoeste 11 Sudoeste 0 1023.8 -- 81
2020-11-18 17:00:00 20.9 8 Sur 11 Sur 0 1023.9 -- 72
2020-11-18 16:00:00 21.7 8 Sur 15 Sur 0 1023.8 -- 64
2020-11-18 15:00:00 21.7 10 Sur 15 Sur 0 1024 -- 64
2020-11-18 14:00:00 20.9 8 Sur 13 Sur 0 1024.4 -- 68
2020-11-18 13:00:00 20.3 8 Sudoeste 13 Oeste 0 1025.4 -- 67
2020-11-18 12:00:00 -- -- -- -- -- -- -- -- --
2020-11-18 11:00:00 18.9 6 Norte 13 Noroeste 0 1026.4 -- 75
2020-11-18 10:00:00 -- -- -- -- -- -- -- -- --
2020-11-18 09:00:00 -- -- -- -- -- -- -- -- --
2020-11-18 08:00:00 -- -- -- -- -- -- -- -- --
2020-11-18 07:00:00 -- -- -- -- -- -- -- -- --
2020-11-18 06:00:00 -- -- -- -- -- -- -- -- --
2020-11-18 05:00:00 -- -- -- -- -- -- -- -- --
2020-11-18 04:00:00 -- -- -- -- -- -- -- -- --
2020-11-18 03:00:00 -- -- -- -- -- -- -- -- --
2020-11-18 02:00:00 -- -- -- -- -- -- -- -- --
2020-11-18 01:00:00 -- -- -- -- -- -- -- -- --
2020-11-18 00:00:00 -- -- -- -- -- -- -- -- --
2020-11-17 23:00:00 15.8 2 Este 5 Noroeste 0 1024.7 -- 92
2020-11-17 22:00:00 16.7 7 Norte 9 Norte 0 1024.6 -- 91
2020-11-17 21:00:00 16.6 2 Noroeste 5 Norte 0 1024.3 -- 90
2020-11-17 20:00:00 17.7 4 Norte 8 Noroeste 0 1024 -- 91
2020-11-17 19:00:00 18.5 5 Norte 11 Oeste 0 1023.6 -- 92
2020-11-17 18:00:00 19.5 10 Sudoeste 15 Sudoeste 0 1023.4 -- 89
2020-11-17 17:00:00 20.9 12 Sudoeste 22 Sur 0 1023.2 -- 81
2020-11-17 16:00:00 22 15 Sur 22 Sur 0 1023 -- 78
2020-11-17 15:00:00 24.9 12 Este 26 Este 0 1023 -- 56
2020-11-17 14:00:00 24.2 15 Sudeste 22 Sudeste 0 1023.2 -- 61
2020-11-17 13:00:00 22.4 15 Sudoeste 21 Oeste 0 1023.9 -- 71
2020-11-17 12:00:00 24.1 13 Sur 18 Sur 0 1024.3 -- 61
2020-11-17 11:00:00 23.3 14 Este 21 Este 0 1024.2 -- 58
2020-11-17 10:00:00 20.4 9 Norte 22 Norte 0 1024.1 -- 60
2020-11-17 09:00:00 17.9 5 Norte 39 Norte 0 1023.4 -- 68
2020-11-17 08:00:00 16.6 17 Norte 32 Norte 0 1022.6 -- 69
2020-11-17 07:00:00 16.9 18 Norte 28 Norte 0 1022.5 -- 67
2020-11-17 06:00:00 17.1 16 Norte 26 Norte 0 1022.2 -- 68
2020-11-17 05:00:00 17.3 18 Norte 26 Norte 0 1021.8 -- 71
2020-11-17 04:00:00 17.9 9 Norte 28 Norte 0 1021.9 -- 69
2020-11-17 03:00:00 17.9 17 Norte 24 Norte 0 1021.6 -- 71
2020-11-17 02:00:00 18.6 8 Norte 17 Norte 0 1021.7 -- 65
2020-11-17 01:00:00 16.8 6 Nordeste 13 Norte 0 1021.9 -- 71
2020-11-17 00:00:00 18.5 8 Este 17 Norte 0 1021.9 -- 64
2020-11-16 23:00:00 19.3 8 Norte 17 Norte 0 1021.6 -- 63
2020-11-16 22:00:00 19.6 12 Norte 17 Norte 0 1021.1 -- 62
2020-11-16 21:00:00 18.6 12 Norte 17 Norte 0 1020.4 -- 74
2020-11-16 20:00:00 17.7 4 Nordeste 8 Noroeste 0 1019.9 -- 90
2020-11-16 19:00:00 18.5 4 Noroeste 5 Norte 0 1019.6 -- 90
2020-11-16 18:00:00 19.7 2 Sur 9 Sudeste 0 1019 -- 87
2020-11-16 17:00:00 20.6 8 Sur 11 Sur 0 1018.9 -- 83
2020-11-16 16:00:00 21.3 7 Sur 13 Sur 0 1018.5 -- 79
2020-11-16 15:00:00 21.6 8 Sur 15 Sur 0 1018.5 -- 78
2020-11-16 14:00:00 21.5 9 Sur 15 Sur 0 1018.9 -- 78
2020-11-16 13:00:00 21.4 11 Sur 15 Sur 0 1019.4 -- 78
2020-11-16 12:00:00 21.3 6 Sudoeste 13 Sudoeste 0 1019.9 -- 78
2020-11-16 11:00:00 19.3 6 Sur 11 Sur 0 1019.7 -- 85
2020-11-16 10:00:00 17.3 6 Oeste 13 Noroeste 0 1019.4 -- 94
2020-11-16 09:00:00 16 5 Noroeste 11 Oeste 0 1018.9 -- 97
2020-11-16 08:00:00 14 4 Norte 11 Norte 0 1018.6 -- 96
2020-11-16 07:00:00 14.2 6 Norte 9 Norte 0 1018.5 -- 97
2020-11-16 06:00:00 14.4 4 Noroeste 13 Noroeste 0 1018.6 -- 92
2020-11-16 05:00:00 15.3 4 Norte 11 Noroeste 0 1018.7 -- 94
2020-11-16 04:00:00 15.3 8 Noroeste 13 Norte 0 1019.2 -- 94
2020-11-16 03:00:00 15 8 Norte 11 Norte 0 1019.4 -- 100
2020-11-16 02:00:00 15.9 9 Norte 11 Norte 0 1019.9 -- 99
2020-11-16 01:00:00 17.1 5 Norte 9 Norte 0 1020.3 -- 98
2020-11-16 00:00:00 17.3 4 Oeste 9 Oeste 0 1020.7 -- 97
2020-11-15 23:00:00 16.6 5 Oeste 9 Oeste 0 1020.9 -- 96
2020-11-15 22:00:00 16.2 5 Noroeste 9 Oeste 0 1020.8 -- 95
2020-11-15 21:00:00 16.6 3 Noroeste 9 Oeste 0 1020.8 -- 94
2020-11-15 20:00:00 17.6 7 Oeste 9 Oeste 0 1020.7 -- 93
2020-11-15 19:00:00 18.3 7 Oeste 13 Sudoeste 0 1020.2 -- 93
2020-11-15 18:00:00 18.9 8 Sudoeste 17 Sudoeste 0 1019.8 -- 90
2020-11-15 17:00:00 20 13 Sudoeste 18 Sudoeste 0 1019.6 -- 84
2020-11-15 16:00:00 20.6 12 Sudoeste 18 Sudoeste 0 1019.5 -- 81
2020-11-15 15:00:00 20.8 15 Sudoeste 21 Sudoeste 0 1019.4 -- 79
2020-11-15 14:00:00 20.8 14 Sudoeste 18 Sudoeste 0 1019.6 -- 78
2020-11-15 13:00:00 20.9 10 Sur 15 Sur 0 1020.2 -- 77
2020-11-15 12:00:00 20.7 8 Sur 13 Sur 0 1020.8 -- 76
2020-11-15 11:00:00 20.5 7 Sur 13 Sur 0 1020.9 -- 74
2020-11-15 10:00:00 19.4 3 Oeste 17 Noroeste 0 1020.8 -- 72
2020-11-15 09:00:00 17 9 Noroeste 13 Noroeste 0 1020.4 -- 84
2020-11-15 08:00:00 14.4 8 Norte 13 Norte 0 1019.9 -- 94
2020-11-15 07:00:00 14.9 3 Norte 8 Este 0 1019.6 -- 93
2020-11-15 06:00:00 15.7 6 Nordeste 13 Norte 0 1019.1 -- 93
2020-11-15 05:00:00 16.7 8 Norte 13 Oeste 0 1018.9 -- 94
2020-11-15 04:00:00 17.1 8 Oeste 9 Oeste 0 1019.5 -- 95
2020-11-15 03:00:00 18.2 7 Oeste 17 Oeste 0 1019.3 -- 91
2020-11-15 02:00:00 18.4 12 Oeste 17 Oeste 0 1019.4 -- 92
2020-11-15 01:00:00 18.4 7 Oeste 17 Sudoeste 0 1019.6 -- 92
2020-11-15 00:00:00 18.5 13 Sudoeste 18 Sudoeste 0 1019.8 -- 91
2020-11-14 23:00:00 18.5 11 Sudoeste 17 Sudoeste 0 1020.2 -- 90
2020-11-14 22:00:00 18.5 13 Sudoeste 17 Oeste 0 1019.9 -- 91
2020-11-14 21:00:00 18.6 10 Sudoeste 17 Sudoeste 0 1019.5 -- 91
2020-11-14 20:00:00 18.5 10 Sudoeste 15 Sudoeste 0 1019.2 -- 90
2020-11-14 19:00:00 18.7 12 Sudoeste 18 Sudoeste 0 1018.7 -- 92
2020-11-14 18:00:00 19.1 13 Sudoeste 22 Sudoeste 0 1018.5 -- 89
2020-11-14 17:00:00 19.8 11 Sudoeste 15 Sudoeste 0 1018.3 -- 84
2020-11-14 16:00:00 20.4 13 Sur 17 Sudoeste 0 1018.1 -- 81
2020-11-14 15:00:00 21.1 12 Sudoeste 17 Sudoeste 0 1018.2 -- 78
2020-11-14 14:00:00 21.3 11 Sudoeste 15 Sudoeste 0 1018.5 -- 75
2020-11-14 13:00:00 20.7 10 Sur 13 Sudoeste 0 1019 -- 74
2020-11-14 12:00:00 20.5 8 Sur 11 Sudoeste 0 1019.7 -- 72
2020-11-14 11:00:00 20.1 4 Oeste 11 Noroeste 0 1019.7 -- 71
2020-11-14 10:00:00 18.8 5 Noroeste 13 Noroeste 0 1019.7 -- 82
2020-11-14 09:00:00 17.6 4 Noroeste 9 Nordeste 0 1019.3 -- 90
2020-11-14 08:00:00 17.5 5 Nordeste 9 Norte 0 1018.6 -- 89
2020-11-14 07:00:00 17.5 8 Norte 13 Norte 0 1018.4 -- 89
2020-11-14 06:00:00 17.3 9 Noroeste 13 Noroeste 0 1018 -- 93
2020-11-14 05:00:00 17.5 9 Nordeste 13 Nordeste 0 1017.6 -- 90
2020-11-14 04:00:00 17.4 7 Norte 11 Norte 0 1018.2 -- 90
2020-11-14 03:00:00 17.6 8 Nordeste 9 Nordeste 0 1018.7 -- 85
2020-11-14 02:00:00 17.3 4 Nordeste 8 Norte 0 1018.8 -- 89
2020-11-14 01:00:00 17.6 4 Nordeste 5 Nordeste 0 1019.2 -- 88
2020-11-14 00:00:00 18 -- -- -- -- 0 1019.6 -- 82
2020-11-13 23:00:00 18.2 -- -- -- -- 0 1019.5 -- 81
2020-11-13 22:00:00 18.1 4 Oeste -- -- 0 1019.1 -- 81
2020-11-13 21:00:00 18.6 7 Norte 13 Norte 0 1018.4 -- 77
2020-11-13 20:00:00 18.6 0 Calma 5 Este 0 1018.4 -- 79
2020-11-13 19:00:00 18.7 3 Este 4 Nordeste 0 1018 -- 77
2020-11-13 18:00:00 19.1 3 Sudoeste 9 Sudoeste 0 1017.5 -- 76
2020-11-13 17:00:00 20.1 8 Sudoeste 13 Sur 0 1017.6 -- 73
2020-11-13 16:00:00 21.3 10 Sudoeste 15 Sudoeste 0 1017.5 -- 67
2020-11-13 15:00:00 21.8 13 Sudoeste 21 Sudoeste 0 1017.4 -- 68
2020-11-13 14:00:00 21.9 15 Sudoeste 22 Sudoeste 0 1017.8 -- 67
2020-11-13 13:00:00 22.5 12 Sudoeste 15 Sudoeste 0 1018.2 -- 55
2020-11-13 12:00:00 22 10 Sur 13 Sudoeste 0 1018.8 -- 55
2020-11-13 11:00:00 19.8 4 Norte 13 Noroeste 0 1019 -- 62
2020-11-13 10:00:00 17.5 11 Norte 17 Norte 0 1019 -- 68
2020-11-13 09:00:00 15.4 9 Norte -- -- 0 1018.3 -- 78
2020-11-13 08:00:00 15.4 8 Noroeste 11 Norte 0 1017.7 -- 81
2020-11-13 07:00:00 16 8 Nordeste 11 Norte 0 1017.2 -- 75
2020-11-13 06:00:00 16.3 4 Noroeste 11 Noroeste 0 1016.9 -- 74
2020-11-13 05:00:00 17.4 12 Noroeste 22 Noroeste 0 1016.8 -- 70
2020-11-13 04:00:00 17.5 13 Noroeste 26 Noroeste 0 1016.7 -- 70
2020-11-13 03:00:00 17.1 18 Noroeste 26 Norte 0 1016.9 -- 71
2020-11-13 02:00:00 17 18 Noroeste 26 Noroeste 0 1017.2 -- 73
2020-11-13 01:00:00 16.3 12 Norte 18 Norte 0 1017.8 -- 76
2020-11-13 00:00:00 16.5 4 Norte 9 Noroeste 0 1017.9 -- 76
2020-11-12 23:00:00 17.7 2 Este 15 Este 0 1017.9 -- 72
2020-11-12 22:00:00 17.9 7 Este 11 Este 0 1017.7 -- 71
2020-11-12 21:00:00 18.4 6 Este 21 Nordeste 0 1017.3 -- 69
2020-11-12 20:00:00 18.7 9 Nordeste 33 Este 0 1017.6 -- 69
2020-11-12 19:00:00 19.1 23 Este 39 Este 0 1017 -- 66
2020-11-12 18:00:00 19.8 22 Este 39 Este 0 1016.7 -- 66
2020-11-12 17:00:00 20.9 28 Este 42 Este 0 1016.6 -- 62
2020-11-12 16:00:00 21.9 31 Este 42 Este 0 1016.5 -- 59
2020-11-12 15:00:00 22.3 28 Este 41 Este 0 1016.7 -- 56
2020-11-12 14:00:00 22.7 24 Este 37 Este 0 1017.5 -- 54
2020-11-12 13:00:00 22.8 21 Este 32 Este 0 1018.4 -- 52
2020-11-12 12:00:00 22.3 20 Este 33 Este 0 1019.5 -- 51
2020-11-12 11:00:00 21.4 11 Este 24 Este 0 1019.8 -- 45
2020-11-12 10:00:00 18.6 18 Noroeste 30 Norte 0 1020 -- 47
2020-11-12 09:00:00 15.8 21 Norte 35 Norte 0 1019.6 -- 54
2020-11-12 08:00:00 14.4 24 Norte 37 Noroeste 0 1019.1 -- 59
2020-11-12 07:00:00 14.4 26 Norte 35 Norte 0 1018.8 -- 61
2020-11-12 06:00:00 14.5 21 Norte 30 Norte 0 1019.1 -- 62
2020-11-12 05:00:00 14.5 21 Norte 33 Noroeste 0 1019.3 -- 63
2020-11-12 04:00:00 14.4 24 Noroeste 33 Noroeste 0 1019.5 -- 68
2020-11-12 03:00:00 14.5 23 Norte 33 Noroeste 0 1019.9 -- 71
2020-11-12 02:00:00 14.6 18 Noroeste 26 Norte 0 1020.5 -- 74
2020-11-12 01:00:00 15.2 12 Norte 30 Noroeste 0 1021.1 -- 73
2020-11-12 00:00:00 16.2 18 Norte 28 Noroeste 0 1021.3 -- 74
2020-11-11 23:00:00 16.8 13 Norte 24 Norte 0 1021.3 -- 72
2020-11-11 22:00:00 17 15 Norte 28 Noroeste 0 1020.9 -- 70
2020-11-11 21:00:00 17.2 14 Norte 22 Noroeste 0 1020.5 -- 66
2020-11-11 20:00:00 17.4 12 Nordeste 30 Nordeste 0 1020.5 -- 68
2020-11-11 19:00:00 18.2 21 Este 33 Este 0 1020.4 -- 77
2020-11-11 18:00:00 19.2 26 Este 42 Este 0 1019.8 -- 70
2020-11-11 17:00:00 21.3 29 Este 41 Este 0 1019.7 -- 58
2020-11-11 16:00:00 22.6 29 Este 41 Este 0 1019.7 -- 52
2020-11-11 15:00:00 23.2 26 Este 42 Este 0 1019.6 -- 48
2020-11-11 14:00:00 23.2 27 Este 45 Este 0 1020 -- 47
2020-11-11 13:00:00 23.4 21 Este 35 Este 0 1021 -- 46
2020-11-11 12:00:00 22.7 23 Nordeste 33 Este 0 1022.1 -- 52
2020-11-11 11:00:00 21.5 14 Nordeste 30 Nordeste 0 1022.8 -- 55
2020-11-11 10:00:00 19.3 14 Norte 33 Norte 0 1023 -- 60
2020-11-11 09:00:00 16 21 Norte 32 Noroeste 0 1022.9 -- 70
2020-11-11 08:00:00 15.3 17 Norte 28 Norte 0 1022.7 -- 73
2020-11-11 07:00:00 14.7 14 Norte 26 Norte 0 1022.7 -- 76
2020-11-11 06:00:00 14.7 18 Norte 28 Noroeste 0 1022.6 -- 75
2020-11-11 05:00:00 14.3 13 Norte 21 Norte 0 1022.8 -- 79
2020-11-11 04:00:00 14.6 9 Norte 24 Norte 0 1023 -- 82
2020-11-11 03:00:00 16 16 Norte 30 Norte 0 1022.9 -- 72
2020-11-11 02:00:00 16.4 20 Norte 30 Norte 0 1023.4 -- 74
2020-11-11 01:00:00 16.6 13 Noroeste 24 Noroeste 0 1023.5 -- 75
2020-11-11 00:00:00 16.5 16 Noroeste 24 Noroeste 0 1023.4 -- 76
2020-11-10 23:00:00 16.6 8 Norte 18 Norte 0 1023.7 -- 76
2020-11-10 22:00:00 16 4 Nordeste 11 Norte 0 1023.7 -- 83
2020-11-10 21:00:00 16.6 9 Norte 15 Nordeste 0 1023.4 -- 81
2020-11-10 20:00:00 17.4 12 Nordeste 22 Este 0 1022.8 -- 82
2020-11-10 19:00:00 18.3 14 Este 22 Este 0 1022.5 -- 78
2020-11-10 18:00:00 20 13 Este 26 Sudeste 0 1021.9 -- 66
2020-11-10 17:00:00 22.3 19 Este 32 Este 0 1021.3 -- 53
2020-11-10 16:00:00 23.7 17 Este 32 Sudeste 0 1020.9 -- 49
2020-11-10 15:00:00 24.2 20 Sudeste 39 Sudeste 0 1020.8 -- 45
2020-11-10 14:00:00 22.4 14 Sur 18 Sur 0 1021.3 -- 64
2020-11-10 13:00:00 21.1 13 Sur 18 Sur 0 1021.8 -- 71
2020-11-10 12:00:00 21.2 13 Sur 17 Sur 0 1022.5 -- 61
2020-11-10 11:00:00 22 7 Sur 21 Norte 0 1022.6 -- 52
2020-11-10 10:00:00 18.9 16 Norte 26 Norte 0 1022.4 -- 59
2020-11-10 09:00:00 16.3 21 Norte 35 Noroeste 0 1021.9 -- 67
2020-11-10 08:00:00 15.3 23 Norte 32 Noroeste 0 1021.2 -- 71
2020-11-10 07:00:00 14.4 18 Norte 28 Norte 0 1021.1 -- 75
2020-11-10 06:00:00 13.3 8 Norte 13 Norte 0 1020.8 -- 87
2020-11-10 05:00:00 13.3 8 Norte 11 Norte 0 1020.6 -- 93
2020-11-10 04:00:00 13 6 Noroeste 9 Oeste 0 1020.6 -- 94
2020-11-10 03:00:00 13.2 4 Nordeste 11 Norte 0 1020.6 -- 93
2020-11-10 02:00:00 13.8 6 Norte 11 Norte 0 1020.5 -- 93
2020-11-10 01:00:00 14.1 9 Norte 11 Norte 0 1020.6 -- 92
2020-11-10 00:00:00 14.5 9 Norte 9 Norte 0 1020.9 -- 92
2020-11-09 23:00:00 14.8 7 Norte 9 Norte 0 1021.1 -- 92
2020-11-09 22:00:00 15.4 5 Norte -- -- 0 1021 -- 90
2020-11-09 21:00:00 15.6 4 Noroeste 8 Norte 0 1020.7 -- 90
2020-11-09 20:00:00 16.5 3 Oeste 9 Oeste 0 1020.6 -- 87
2020-11-09 19:00:00 17.1 4 Oeste 8 Oeste 0 1020.1 -- 85
2020-11-09 18:00:00 18.6 5 Sudoeste 13 Sudoeste 0 1019.8 -- 81
2020-11-09 17:00:00 19.4 10 Sudoeste 15 Sudoeste 0 1019.7 -- 78
2020-11-09 16:00:00 19.5 11 Sur 17 Sur 0 1019.5 -- 77
2020-11-09 15:00:00 19.9 9 Sur 18 Sur 0 1019.4 -- 78
2020-11-09 14:00:00 20.5 10 Sur 15 Sur 0 1019.5 -- 74
2020-11-09 13:00:00 20.2 10 Sur 13 Sur 0 1020.2 -- 73
2020-11-09 12:00:00 19.9 6 Sur 15 Sur 0 1020.8 -- 72
2020-11-09 11:00:00 19.2 8 Sudoeste 11 Sudoeste 0 1020.9 -- 74
2020-11-09 10:00:00 17.2 6 Norte 15 Norte 0 1020.6 -- 70
2020-11-09 09:00:00 14.6 13 Norte 18 Noroeste 0 1020.2 -- 81
2020-11-09 08:00:00 13.3 10 Norte 13 Norte 0 1019.3 -- 90
2020-11-09 07:00:00 13.9 4 Norte 13 Norte 0 1019.1 -- 87
2020-11-09 06:00:00 14.6 6 Norte 22 Norte 0 1019 -- 79
2020-11-09 05:00:00 14.7 12 Noroeste 22 Noroeste 0 1018.9 -- 79
2020-11-09 04:00:00 15 13 Noroeste 21 Norte 0 1019 -- 78
2020-11-09 03:00:00 14.8 13 Norte 17 Norte 0 1019.4 -- 81
2020-11-09 02:00:00 14.1 4 Norte 13 Norte 0 1019.5 -- 87
2020-11-09 01:00:00 15 11 Norte 21 Norte 0 1019.7 -- 86
2020-11-09 00:00:00 15.1 9 Norte 13 Norte 0 1019.9 -- 87
2020-11-08 23:00:00 15.4 6 Oeste 13 Norte 0 1019.9 -- 88
2020-11-08 22:00:00 15.2 7 Norte 11 Norte 0 1019.6 -- 88
2020-11-08 21:00:00 16 9 Norte 15 Norte 0 1019.4 -- 88
2020-11-08 20:00:00 16.9 6 Norte 9 Norte 0 1019.5 -- 88
2020-11-08 19:00:00 18 4 Sudoeste 13 Sudoeste 0 1019.3 -- 87
2020-11-08 18:00:00 19.2 11 Sudoeste 17 Oeste 0 1018.9 -- 80
2020-11-08 17:00:00 20.6 12 Sudoeste 18 Oeste 0 1018.7 -- 72
2020-11-08 16:00:00 22 11 Sudoeste 17 Sudoeste 0 1018.6 -- 60
2020-11-08 15:00:00 22.2 8 Sudoeste 21 Oeste 0 1019 -- 63
2020-11-08 14:00:00 21 17 Sudoeste 22 Oeste 0 1019.3 -- 69
2020-11-08 13:00:00 21 14 Sudoeste 21 Sudoeste 0 1020 -- 66
2020-11-08 12:00:00 22.2 13 Sudoeste 18 Nordeste 0 1020.7 -- 57
2020-11-08 11:00:00 21.5 8 Norte -- -- -- 1021.1 -- 50
2020-11-08 10:00:00 19.1 12 Norte 24 Norte 0 1021.1 -- 57
2020-11-08 09:00:00 16.2 11 Noroeste 17 Noroeste 0 1021 -- 68
2020-11-08 08:00:00 14.4 8 Norte 17 Norte 0 1020.4 -- 78
2020-11-08 07:00:00 16.2 16 Norte 33 Noroeste 0 1020.2 -- 62
2020-11-08 06:00:00 14.5 24 Norte 39 Noroeste 0 1019.9 -- 71
2020-11-08 05:00:00 14.7 16 Norte 26 Norte 0 1019.9 -- 84
2020-11-08 04:00:00 13.2 9 Noroeste 11 Norte 0 1020.7 -- 91
2020-11-08 03:00:00 13.5 9 Norte 13 Norte 0 1020.8 -- 86
2020-11-08 02:00:00 14.4 11 Norte -- -- -- 1021 -- 89
2020-11-08 01:00:00 13.8 8 Sudeste 17 Norte 0 1021.5 -- 92
2020-11-08 00:00:00 14.1 2 Norte 13 Noroeste 0 1021.1 -- 85
2020-11-07 23:00:00 15.2 7 Norte 17 Nordeste 0 1021.1 -- 84
2020-11-07 22:00:00 15.9 12 Nordeste 17 Nordeste 0 1020.8 -- 83
2020-11-07 21:00:00 16 9 Nordeste 17 Este 0 1020.4 -- 87
2020-11-07 20:00:00 17.1 6 Sur 17 Este 0 1019.9 -- 83
2020-11-07 19:00:00 18.6 0 Calma 32 Sudoeste 0 1019.6 -- 75
2020-11-07 18:00:00 19.5 22 Sudoeste 48 Sudoeste 0 1018.7 -- 74
2020-11-07 17:00:00 20.2 28 Sudoeste 48 Sudoeste 0 1018.5 -- 74
2020-11-07 16:00:00 20.7 33 Sudoeste 50 Sudoeste 0 1018.2 -- 74
2020-11-07 15:00:00 20.9 41 Sudoeste 54 Sudoeste 0 1017.8 -- 70
2020-11-07 14:00:00 21.1 39 Sudoeste 54 Sudoeste 0 1017.8 -- 70
2020-11-07 13:00:00 21.2 33 Sudoeste 45 Sudoeste 0 1018.6 -- 71
2020-11-07 12:00:00 21 26 Sudoeste 37 Sur 0 1019.2 -- 74
2020-11-07 11:00:00 20.3 23 Sudoeste 35 Sudoeste 0 1019 -- 77
2020-11-07 10:00:00 20.1 13 Sudoeste 32 Sudoeste 0 1018.2 -- 78
2020-11-07 09:00:00 18.7 9 Norte 21 Norte 0 1017.1 -- 77
2020-11-07 08:00:00 16.1 5 Nordeste 11 Nordeste 0 1015.9 -- 91
2020-11-07 07:00:00 16.1 3 Sudeste 22 Norte 0 1015.2 -- 86
2020-11-07 06:00:00 16.5 14 Norte 18 Norte 0 1014.4 -- 86
2020-11-07 05:00:00 16.8 12 Noroeste 26 Norte 1 1013.9 -- 84
2020-11-07 04:00:00 16.6 18 Noroeste 67 Noroeste 2.1 1014.5 -- 82
2020-11-07 03:00:00 21 17 Noroeste 39 Norte 0 1012.4 -- 64
2020-11-07 02:00:00 20.4 7 Oeste -- -- -- 1011.6 -- 73
2020-11-07 01:00:00 19.9 5 Sur 30 Sudoeste 0 1011.1 -- 83
2020-11-07 00:00:00 23.5 8 Noroeste 28 Norte 0 1010.6 -- 46
2020-11-06 23:00:00 25.3 17 Norte 32 Norte 0 1009.7 -- 39
2020-11-06 22:00:00 25.4 15 Noroeste 45 Norte 0 1009.5 -- 37
2020-11-06 21:00:00 25 17 Norte 30 Norte 0 1009.2 -- 39
2020-11-06 20:00:00 24.8 15 Noroeste 30 Noroeste 0 1009.6 -- 41
2020-11-06 19:00:00 25.2 19 Norte 35 Noroeste 0 1009.5 -- 39
2020-11-06 18:00:00 25.7 22 Noroeste 37 Norte 0 1009.5 -- 40
2020-11-06 17:00:00 27.3 33 Nordeste 50 Nordeste 0 1009.5 -- 28
2020-11-06 16:00:00 27.2 32 Nordeste 50 Nordeste 0 1010.4 -- 33
2020-11-06 15:00:00 27.9 32 Nordeste 48 Nordeste 0 1010.9 -- 35
2020-11-06 14:00:00 27.2 31 Nordeste 48 Nordeste 0 1011.6 -- 38
2020-11-06 13:00:00 27.1 34 Nordeste 48 Este 0 1012.6 -- 39
2020-11-06 12:00:00 28.4 24 Nordeste 41 Nordeste 0 1013.3 -- 30
2020-11-06 11:00:00 26.1 13 Norte 28 Nordeste 0 1013.8 0.9 41
2020-11-06 10:00:00 23.2 18 Noroeste 37 Norte 0 1014 -- 48
2020-11-06 09:00:00 21.4 18 Norte 37 Noroeste 0 1013.6 -- 54
2020-11-06 08:00:00 20.1 15 Norte 33 Norte 0 1012.9 -- 58
2020-11-06 07:00:00 20.4 23 Norte 33 Noroeste 0 1012.8 -- 56
2020-11-06 06:00:00 20.4 16 Norte 35 Noroeste 0 1012.8 -- 56
2020-11-06 05:00:00 20.8 25 Noroeste 41 Norte 0 1012.4 -- 55
2020-11-06 04:00:00 20.3 21 Norte 35 Noroeste 0 1012.5 -- 55
2020-11-06 03:00:00 20.5 20 Norte 41 Noroeste 0 1013 -- 54
2020-11-06 02:00:00 20.5 26 Noroeste -- -- -- 1012.8 -- 53
2020-11-06 01:00:00 20.2 27 Noroeste 50 Noroeste 0 1013 -- 55
2020-11-06 00:00:00 20.5 28 Noroeste 46 Noroeste 0 1013.2 -- 55
2020-11-05 23:00:00 19.9 23 Noroeste 48 Noroeste 0 1013.9 -- 58
2020-11-05 22:00:00 20.2 23 Noroeste 37 Noroeste 0 1014.2 -- 59
2020-11-05 21:00:00 20.4 19 Noroeste 33 Noroeste 0 1013.8 -- 59
2020-11-05 20:00:00 20.1 19 Noroeste 32 Noroeste 0 1013.9 -- 65
2020-11-05 19:00:00 20.2 19 Noroeste 33 Noroeste 0 1013.5 -- 65
2020-11-05 18:00:00 21.3 18 Noroeste 32 Norte 0 1012.7 -- 62
2020-11-05 17:00:00 22.3 13 Noroeste 33 Noroeste 0 1012.4 -- 58
2020-11-05 16:00:00 22.8 23 Noroeste 37 Noroeste 0 1012.1 -- 59
2020-11-05 15:00:00 22.3 20 Noroeste 35 Noroeste 0 1011.6 -- 63
2020-11-05 14:00:00 20.1 24 Nordeste 45 Nordeste 0.1 1012.9 -- 78
2020-11-05 13:00:00 19.7 33 Este 55 Nordeste 0.6 1014.2 -- 88
2020-11-05 12:00:00 22.4 37 Este 58 Nordeste 0 1014.2 -- 67
2020-11-05 11:00:00 21.3 39 Nordeste 63 Nordeste 0 1014 -- 74
2020-11-05 10:00:00 20.7 37 Este 50 Este 0 1014.7 -- 76
2020-11-05 09:00:00 20.1 31 Nordeste 55 Nordeste 0 1013.6 -- 75
2020-11-05 08:00:00 19.6 22 Nordeste 35 Nordeste 0 1012.8 -- 79
2020-11-05 07:00:00 19.7 26 Nordeste 78 Este 0.1 1012.4 -- 78
2020-11-05 06:00:00 19.4 35 Nordeste 52 Nordeste 0.1 1011.9 -- 82
2020-11-05 05:00:00 19.5 21 Nordeste 61 Nordeste 0.1 1012.6 -- 78
2020-11-05 04:00:00 19.5 33 Nordeste 59 Nordeste 0 1011.7 -- 76
2020-11-05 03:00:00 18.7 41 Nordeste 61 Nordeste 0.4 1011.1 -- 80
2020-11-05 02:00:00 19.6 28 Este -- -- -- 1012.3 -- 71
2020-11-05 01:00:00 20.4 34 Nordeste 54 Nordeste 0 1012 -- 65
2020-11-05 00:00:00 19.5 32 Nordeste 48 Nordeste 0 1012.5 -- 72
2020-11-04 23:00:00 19.4 25 Nordeste 50 Nordeste 0 1013.3 -- 73
2020-11-04 22:00:00 19.1 32 Nordeste 50 Nordeste 0 1013.2 -- 78
2020-11-04 21:00:00 19.2 31 Este 50 Nordeste 0 1013.2 -- 79
2020-11-04 20:00:00 19.3 32 Este 46 Este 0 1012.5 -- 80
2020-11-04 19:00:00 19.3 27 Este 39 Este 0 1011.7 -- 79
2020-11-04 18:00:00 20.3 28 Este 42 Este 0 1011.8 -- 67
2020-11-04 17:00:00 21.3 26 Este 37 Este 0 1011.8 -- 61
2020-11-04 16:00:00 22.4 24 Este 37 Este 0 1011.9 -- 54
2020-11-04 15:00:00 24.1 28 Este 37 Este 0 1012.1 -- 48
2020-11-04 14:00:00 24.6 22 Este 33 Este 0 1012.9 -- 43
2020-11-04 13:00:00 23.7 22 Este 37 Este 0 1013.9 -- 48
2020-11-04 12:00:00 23.6 19 Este 33 Este 0 1015 -- 50
2020-11-04 11:00:00 20.8 4 Noroeste 21 Noroeste 0 1016 -0.5 59
2020-11-04 10:00:00 19.2 14 Noroeste 24 Norte 0 1016.5 -- 63
2020-11-04 09:00:00 17.8 12 Noroeste 22 Noroeste 0 1016.5 -- 68
2020-11-04 08:00:00 16.4 15 Norte 22 Norte 0 1016.5 -- 72
2020-11-04 07:00:00 15.4 8 Nordeste 24 Norte 0 1016.5 -- 77
2020-11-04 06:00:00 16.3 15 Norte 22 Norte 0 1016.8 -- 74
2020-11-04 05:00:00 16.1 12 Norte 22 Nordeste 0 1017.2 -- 77
2020-11-04 04:00:00 16.2 12 Norte -- -- -- 1017.6 -- 76
2020-11-04 03:00:00 15.6 12 Norte 22 Norte 0 1018.6 -- 81
2020-11-04 02:00:00 16.5 13 Norte 28 Nordeste 0 1019.1 -- 78
2020-11-04 01:00:00 15.9 10 Norte 18 Norte 0 1020 -- 80
2020-11-04 00:00:00 15.5 11 Nordeste 21 Nordeste 0 1020.8 -- 82
2020-11-03 23:00:00 15.9 14 Norte 24 Norte 0 1021.2 -- 81
2020-11-03 22:00:00 14.6 5 Este 13 Este 0 1021.1 -- 87
2020-11-03 21:00:00 14.9 3 Norte 8 Norte 0 1020.6 -- 85
2020-11-03 20:00:00 15.7 4 Nordeste 11 Norte 0 1020.2 -- 84
2020-11-03 19:00:00 16.2 6 Noroeste 8 Noroeste 0 1020 -- 86
2020-11-03 18:00:00 17.4 6 Sudoeste 13 Oeste 0 1019.7 -- 83
2020-11-03 17:00:00 18.4 10 Sudoeste 15 Sudoeste 0 1019.5 -- 79
2020-11-03 16:00:00 18.8 7 Sudoeste 15 Sudoeste 0 1019.6 -- 77
2020-11-03 15:00:00 18.6 9 Sudoeste 17 Sudoeste 0 1019.9 -- 78
2020-11-03 14:00:00 18.9 12 Sur 17 Sudoeste 0 1020.4 -- 75
2020-11-03 13:00:00 18.6 11 Sudoeste 17 Sudoeste 0 1020.7 -- 76
2020-11-03 12:00:00 17.3 10 Sur 18 Sudoeste 0 1021.2 -- 84
2020-11-03 11:00:00 16.8 9 Sudoeste 18 Sudoeste 0 1021.1 -- 86
2020-11-03 10:00:00 16.9 11 Sudoeste 17 Sudoeste 0 1021 -- 81
2020-11-03 09:00:00 14.7 3 Noroeste 9 Noroeste 0 1020.6 -- 77
2020-11-03 08:00:00 12 8 Noroeste 11 Norte 0 1020.1 -- 86
2020-11-03 07:00:00 11.2 7 Norte 13 Este 0 1019.7 -- 91
2020-11-03 06:00:00 12.1 6 Nordeste 11 Este 0 1019.3 -- 90
2020-11-03 05:00:00 12.2 4 Sur 9 Norte 0 1019.3 -- 90
2020-11-03 04:00:00 13 -- -- -- -- 0 1019.3 -- 90
2020-11-03 03:00:00 12.2 7 Norte 11 Este 0 1019.6 -- 92
2020-11-03 02:00:00 12.9 3 Norte 15 Noroeste 0 1019.6 -- 99
2020-11-03 01:00:00 13.8 13 Norte 17 Norte 0 1019.9 -- 96
2020-11-03 00:00:00 13.5 5 Noroeste 9 Noroeste 0 1020 -- 95
2020-11-02 23:00:00 13.7 6 Norte 9 Norte 0 1019.9 -- 92
2020-11-02 22:00:00 13.8 3 Nordeste 8 Este 0 1019.9 -- 90
2020-11-02 21:00:00 14.4 6 Nordeste 8 Nordeste 0 1019.7 -- 89
2020-11-02 20:00:00 15.1 -- -- -- -- 0 1019.8 -- 92
2020-11-02 19:00:00 15.7 4 Sudoeste 9 Sudoeste 0 1019.5 -- 92
2020-11-02 18:00:00 16.5 6 Sudoeste 9 Sudoeste 0 1019 -- 88
2020-11-02 17:00:00 17.5 8 Sur 13 Sur 0 1019.1 -- 83
2020-11-02 16:00:00 18 7 Sudoeste 15 Sur 0 1019.4 -- 81
2020-11-02 15:00:00 17.8 9 Sur 15 Sur 0 1019.6 -- 81
2020-11-02 14:00:00 18.4 9 Sur 17 Sudoeste 0 1019.9 -- 79
2020-11-02 13:00:00 18.8 10 Sur 15 Sudoeste 0 1020.6 -- 78
2020-11-02 12:00:00 18.4 9 Sur 17 Sudoeste 0 1021.3 -- 80
2020-11-02 11:00:00 17.8 6 Sudoeste 11 Sudoeste 0 1021.5 -- 82
2020-11-02 10:00:00 16.9 5 Sur 13 Sur 0 1021.4 -- 84
2020-11-02 09:00:00 15.7 6 Sur 9 Sur 0 1021 -- 82
2020-11-02 08:00:00 12.4 -- -- -- -- 0 1020.3 -- 86
2020-11-02 07:00:00 12.1 4 Nordeste 5 Nordeste 0 1019.8 -- 87
2020-11-02 06:00:00 11.9 0 Calma 8 Norte 0 1019.8 -- 88
2020-11-02 05:00:00 12 3 Norte 9 Norte 0 1019.9 -- 94
2020-11-02 04:00:00 12 7 Este 11 Este 0 1019.9 -- 94
2020-11-02 03:00:00 13 0 Calma 5 Nordeste 0 1020 -- 92
2020-11-02 02:00:00 13.7 4 Nordeste -- -- 0 1020.2 -- 82
2020-11-02 01:00:00 14.2 4 Este 9 Norte 0 1020.6 -- 80
2020-11-02 00:00:00 14.4 7 Norte 8 Norte 0 1020.6 -- 93
2020-11-01 23:00:00 14.5 4 Norte 8 Norte 0 1020.8 -- 92
2020-11-01 22:00:00 14.9 2 Norte 11 Este 0 1020.8 -- 90
2020-11-01 21:00:00 15.8 6 Este 9 Este 0 1020.6 -- 95
2020-11-01 20:00:00 16.1 2 Noroeste 4 Noroeste 0 1020.7 -- 92
2020-11-01 19:00:00 16.9 3 Sudoeste 8 Sudoeste 0 1020.5 -- 92
2020-11-01 18:00:00 17.9 5 Sudoeste 9 Sur 0 1020.3 -- 88
2020-11-01 17:00:00 18.5 6 Sudoeste 11 Sur 0 1020.2 -- 85
2020-11-01 16:00:00 17.4 8 Sudoeste 17 Oeste 0 1020.6 -- 89
2020-11-01 15:00:00 18.5 10 Sudoeste 18 Sudoeste 0 1020.9 -- 85
2020-11-01 14:00:00 20.4 10 Sur 17 Sudoeste 0 1021.5 -- 77
2020-11-01 13:00:00 20.3 11 Sudoeste 15 Sur 0 1022 -- 75
2020-11-01 12:00:00 19.9 11 Sur 15 Sur 0 1022.5 -- 71
2020-11-01 11:00:00 19.6 8 Sur 11 Sur 0 1022.7 -- 69
2020-11-01 10:00:00 18.5 5 Sudoeste 9 Sur 0 1022.6 -- 72
2020-11-01 09:00:00 16.6 2 Sudoeste 8 Norte 0 1022.2 -- 78
2020-11-01 08:00:00 13.4 6 Norte 11 Norte 0 1021.6 -- 88
2020-11-01 07:00:00 13.1 7 Norte 9 Norte 0 1021.5 -- 87
2020-11-01 06:00:00 12.9 6 Noroeste 9 Norte 0 1021.4 -- 89
2020-11-01 05:00:00 13 4 Norte 5 Norte 0 1021.2 -- 88
2020-11-01 04:00:00 13.5 0 Calma 11 Norte 0 1021.1 -- 87
2020-11-01 03:00:00 14 2 Norte 5 Noroeste 0 1021.4 -- 84
2020-11-01 02:00:00 14.5 3 Nordeste 13 Norte 0 1021.6 -- 83
2020-11-01 01:00:00 15.2 9 Norte -- -- 0 1022.5 -- 83
2020-11-01 00:00:00 15.6 7 Nordeste 9 Nordeste 0 1022.2 -- 84
2020-10-31 23:00:00 15.7 3 Norte 9 Norte 0 1022.1 -- 84
2020-10-31 22:00:00 16.1 4 Nordeste -- -- 0 1022.2 -- 83
2020-10-31 21:00:00 16.4 4 Noroeste 5 Norte 0 1021.9 -- 84
2020-10-31 20:00:00 17.3 0 Calma 4 Norte 0 1021.6 -- 81
2020-10-31 19:00:00 18.3 0 Calma 8 Sudoeste 0 1021.4 -- 78
2020-10-31 18:00:00 19.7 5 Sudoeste 13 Sudoeste 0 1021.3 -- 71
2020-10-31 17:00:00 20.4 9 Sudoeste 15 Sudoeste 0 1021.4 -- 72
2020-10-31 16:00:00 21 10 Sudoeste 15 Sudoeste 0 1021.3 -- 70
2020-10-31 15:00:00 21.5 10 Sudoeste 17 Sudoeste 0 1021.3 -- 67
2020-10-31 14:00:00 21.5 14 Sudoeste 21 Sudoeste 0 1021.9 -- 67
2020-10-31 13:00:00 21.6 14 Sudoeste 21 Sudoeste 0 1022.5 -- 63
2020-10-31 12:00:00 21 15 Sudoeste 26 Sudoeste 0 1023 -- 63
2020-10-31 11:00:00 21 15 Sudoeste 24 Oeste 0 1022.9 -- 62
2020-10-31 10:00:00 21.7 16 Oeste 28 Norte 0 1023 -- 49
2020-10-31 09:00:00 20 17 Norte 35 Norte 0 1022.3 -- 43
2020-10-31 08:00:00 18 18 Norte 35 Norte 0 1021.7 -- 48
2020-10-31 07:00:00 18.2 23 Norte 35 Noroeste 0 1021.4 -- 47
2020-10-31 06:00:00 18.4 23 Norte 33 Norte 0 1021.4 -- 46
2020-10-31 05:00:00 17.8 21 Norte 30 Norte 0 1021.4 -- 48
2020-10-31 04:00:00 17.4 21 Norte 30 Noroeste 0 1021.5 -- 48
2020-10-31 03:00:00 17 14 Norte 17 Norte 0 1022 -- 51
2020-10-31 02:00:00 16.9 3 Este 21 Norte 0 1022.1 -- 50
2020-10-31 01:00:00 18.2 13 Norte 22 Norte 0 1022.1 -- 48
2020-10-31 00:00:00 18.1 11 Norte 18 Norte 0 1022.3 -- 48
2020-10-30 23:00:00 18 5 Nordeste 11 Nordeste 0 1022.4 -- 48
2020-10-30 22:00:00 17.3 4 Norte 17 Este 0 1022.2 -- 54
2020-10-30 21:00:00 17.9 11 Nordeste 17 Nordeste 0 1021.9 -- 53
2020-10-30 20:00:00 19 13 Este 28 Nordeste 0 1021.6 -- 57
2020-10-30 19:00:00 20.3 17 Este 26 Este 0 1021.2 -- 53
2020-10-30 18:00:00 23.3 15 Este 24 Este 0 1020.8 -- 39
2020-10-30 17:00:00 25.9 16 Este 30 Este 0 1020.7 -- 31
2020-10-30 16:00:00 25.5 9 Sur 21 Oeste 0 1020.4 -- 38
2020-10-30 15:00:00 28.1 14 Sudeste 30 Sudeste 0 1021 -- 29
2020-10-30 14:00:00 28.1 21 Sudeste 32 Sudeste 0 1021.4 -- 27
2020-10-30 13:00:00 28.3 24 Este 33 Sudeste 0 1021.8 -- 26
2020-10-30 12:00:00 28.2 20 Este 32 Este 0 1022.5 -- 29
2020-10-30 11:00:00 27.1 15 Este 26 Este 0 1022.8 -- 29
2020-10-30 10:00:00 23.1 13 Norte 32 Norte 0 1023.2 -- 41
2020-10-30 09:00:00 19.9 23 Noroeste 32 Norte 0 1023 -- 48
2020-10-30 08:00:00 17.8 14 Norte 32 Norte 0 1022.3 -- 55
2020-10-30 07:00:00 17.4 21 Norte 30 Norte 0 1021.9 -- 58
2020-10-30 06:00:00 17.5 23 Norte 32 Norte 0 1022 -- 58
2020-10-30 05:00:00 17 18 Norte 26 Norte 0 1022.1 -- 60
2020-10-30 04:00:00 14.3 4 Oeste 11 Norte 0 1022.5 -- 73
2020-10-30 03:00:00 15.4 9 Norte 18 Nordeste 0 1022.7 -- 69
2020-10-30 02:00:00 16.6 11 Norte 21 Nordeste 0 1022.9 -- 66
2020-10-30 01:00:00 16.8 5 Este 9 Nordeste 0 1023.2 -- 61
2020-10-30 00:00:00 16 5 Este 21 Norte 0 1023.4 -- 64
2020-10-29 23:00:00 18.9 11 Norte 21 Norte 0 1023.2 -- 56
2020-10-29 22:00:00 18.2 9 Nordeste 17 Este 0 1023.3 -- 58
2020-10-29 21:00:00 17.9 5 Nordeste 15 Este 0 1022.9 -- 61
2020-10-29 20:00:00 19.5 13 Nordeste 26 Este 0 1022.6 -- 60
2020-10-29 19:00:00 20.4 11 Este 18 Nordeste 0 1022 -- 55
2020-10-29 18:00:00 23.3 9 Este 22 Este 0 1021.4 -- 46
2020-10-29 17:00:00 24.5 15 Sudeste 22 Este 0 1021.7 -- 44
2020-10-29 16:00:00 23.3 10 Sudoeste 17 Sudoeste 0 1021.8 -- 55
2020-10-29 15:00:00 23.2 14 Sudoeste 22 Sudoeste 0 1021.9 -- 54
2020-10-29 14:00:00 22.8 17 Sudoeste 22 Sudoeste 0 1022.5 -- 57
2020-10-29 13:00:00 22.5 13 Sudoeste 17 Sudoeste 0 1023.1 -- 51
2020-10-29 12:00:00 20.4 11 Sudoeste 15 Sudoeste 0 1023.7 -- 64
2020-10-29 11:00:00 21.3 8 Sudoeste 13 Sudoeste 0 1023.5 -- 50
2020-10-29 10:00:00 22.4 6 Sur 13 Este 0 1023.5 -- 37
2020-10-29 09:00:00 19 5 Norte 13 Norte 0 1023 -- 45
2020-10-29 08:00:00 15 8 Norte 15 Norte 0 1022.2 -- 55
2020-10-29 07:00:00 13.8 11 Norte 15 Norte 0 1021.8 -- 63
2020-10-29 06:00:00 12.5 6 Nordeste 11 Norte 0 1021.4 -- 68
2020-10-29 05:00:00 12.8 9 Norte 11 Norte 0 1021 -- 72
2020-10-29 04:00:00 13.1 11 Norte 13 Norte 0 1020.8 -- 69
2020-10-29 03:00:00 14 4 Sudoeste 15 Nordeste 0 1020.9 -- 67
2020-10-29 02:00:00 14.8 9 Oeste 15 Oeste 0 1020.9 -- 58
2020-10-29 01:00:00 13.9 9 Noroeste 13 Noroeste 0 1021.1 -- 71
2020-10-29 00:00:00 13.9 4 Norte 9 Norte 0 1021.2 -- 79
2020-10-28 23:00:00 14.2 3 Noroeste 8 Norte 0 1021.2 -- 83
2020-10-28 22:00:00 14.4 4 Norte 9 Nordeste 0 1020.9 -- 79
2020-10-28 21:00:00 15 6 Este 9 Nordeste 0 1020.3 -- 81
2020-10-28 20:00:00 15.7 5 Norte -- -- 0 1020.2 -- 84
2020-10-28 19:00:00 17 4 Sudoeste 9 Sudoeste 0 1019.8 -- 84
2020-10-28 18:00:00 18.4 7 Sudoeste 11 Sudoeste 0 1019.2 -- 79
2020-10-28 17:00:00 19.3 9 Sudoeste 15 Sur -- 1019.1 -- 77
2020-10-28 16:00:00 19.8 8 Sur 13 Sur 0 1019 -- 76
2020-10-28 15:00:00 20 9 Sur 15 Sudoeste 0 1019 -- 76
2020-10-28 14:00:00 19.8 11 Sudoeste 17 Sudoeste 0 1019.2 -- 75
2020-10-28 13:00:00 19.9 10 Sur 17 Sur 0 1019.9 -- 68
2020-10-28 12:00:00 20.2 10 Sur 13 Sur 0 1020.4 -- 57
2020-10-28 11:00:00 19.8 9 Sur 11 Sur 0 1020.2 -- 54
2020-10-28 10:00:00 18.7 4 Sur 9 Sudoeste 0 1019.8 -- 47
2020-10-28 09:00:00 16.9 3 Sudeste 15 Norte 0 1019.4 -- 46
2020-10-28 08:00:00 12.8 10 Norte 13 Norte 0 1018.4 -- 56
2020-10-28 07:00:00 10.5 3 Norte 9 Este 0 1017.6 -- 66
2020-10-28 06:00:00 11.2 2 Nordeste 17 Noroeste 0 1017.1 -- 66
2020-10-28 05:00:00 12.9 10 Noroeste 17 Noroeste 0 1016.9 -- 60
2020-10-28 04:00:00 12.2 11 Norte 15 Norte 0 1016.8 -- 67
2020-10-28 03:00:00 12.5 12 Norte 17 Norte 0 1017.2 -- 66
2020-10-28 02:00:00 11.8 8 Norte 13 Norte 0 1017.4 -- 71
2020-10-28 01:00:00 12.2 5 Norte 9 Este 0 1017.7 -- 70
2020-10-28 00:00:00 12.6 6 Nordeste 17 Noroeste 0 1018 -- 70
2020-10-27 23:00:00 13.7 5 Norte 11 Norte 0 1018.1 -- 76
2020-10-27 22:00:00 14.1 4 Nordeste 9 Nordeste 0 1017.8 -- 76
2020-10-27 21:00:00 15.1 4 Norte 15 Oeste 0 1017.4 -- 71
2020-10-27 20:00:00 16.3 9 Sudoeste 22 Sudoeste 0 1016.9 -- 67
2020-10-27 19:00:00 16.9 15 Sudoeste 24 Sudoeste 0 1016.7 -- 66
2020-10-27 18:00:00 17.6 17 Sudoeste 32 Sudoeste 0 1016.4 -- 64
2020-10-27 17:00:00 18.6 21 Sudoeste 30 Sudoeste 0 1016.3 -- 58
2020-10-27 16:00:00 19.1 18 Sudoeste 24 Sudoeste 0 1016.7 -- 61
2020-10-27 15:00:00 20 14 Sur 18 Sur 0 1016.8 -- 64
2020-10-27 14:00:00 20 14 Sur 21 Sudoeste 0 1017.2 -- 60
2020-10-27 13:00:00 19.9 14 Sur 18 Sur 0 1018.1 -- 62
2020-10-27 12:00:00 19.8 12 Sur 17 Sudoeste 0 1018.6 -- 54
2020-10-27 11:00:00 20 10 Sur 18 Noroeste 0 1018.7 -- 46
2020-10-27 10:00:00 18.1 14 Noroeste 26 Norte 0 1018.6 -- 38
2020-10-27 09:00:00 14.7 22 Noroeste 32 Noroeste 0 1018.6 -- 43
2020-10-27 08:00:00 13.1 24 Norte 35 Noroeste 0 1018.1 -- 46
2020-10-27 07:00:00 13.4 23 Norte 39 Norte 0 1017.8 -- 45
2020-10-27 06:00:00 13.5 22 Norte 35 Noroeste 0 1017.6 -- 44
2020-10-27 05:00:00 13.6 23 Noroeste 33 Norte 0 1017.3 -- 44
2020-10-27 04:00:00 13.9 23 Norte 33 Norte 0 1017.1 -- 43
2020-10-27 03:00:00 14.3 22 Norte 33 Noroeste 0 1017.2 -- 42
2020-10-27 02:00:00 14.6 23 Noroeste 32 Norte 0 1017.6 -- 41
2020-10-27 01:00:00 14.9 22 Noroeste 33 Noroeste 0 1017.7 -- 41
2020-10-27 00:00:00 15.9 22 Noroeste 32 Norte 0 1018 -- 39